createdAt,value
2023-06-19T06:55:42.284Z,8.87
2023-06-19T06:56:44.246Z,8.70
2023-06-19T06:57:46.169Z,7.03
2023-06-19T06:58:48.171Z,10.08
2023-06-19T06:59:50.080Z,8.26
2023-06-19T07:00:51.974Z,6.46
2023-06-19T07:01:54.108Z,8.79
2023-06-19T07:02:56.181Z,8.98
2023-06-19T07:03:58.194Z,5.03
2023-06-19T07:05:00.097Z,5.60
2023-06-19T07:06:02.098Z,5.48
2023-06-19T07:07:04.074Z,8.03
2023-06-19T07:08:06.106Z,5.88
2023-06-19T07:09:08.066Z,6.88
2023-06-19T07:10:10.583Z,7.33
2023-06-19T07:11:12.477Z,5.91
2023-06-19T07:12:14.427Z,5.69
2023-06-19T07:13:16.279Z,7.67
2023-06-19T07:14:18.129Z,11.43
2023-06-19T07:15:23.155Z,10.06
2023-06-19T07:16:25.960Z,7.25
2023-06-19T07:17:27.932Z,9.57
2023-06-19T07:18:29.843Z,17.00
2023-06-19T07:19:31.783Z,7.91
2023-06-19T07:20:33.733Z,8.06
2023-06-19T07:21:35.586Z,9.62
2023-06-19T07:22:37.562Z,4.69
2023-06-19T07:23:39.594Z,9.85
2023-06-19T07:24:41.477Z,4.79
2023-06-19T07:25:43.604Z,7.69
2023-06-19T07:26:45.601Z,6.79
2023-06-19T07:27:47.623Z,6.49
2023-06-19T07:28:49.456Z,6.47
2023-06-19T07:29:51.412Z,6.90
2023-06-19T07:30:53.376Z,6.37
2023-06-19T07:31:55.318Z,8.89
2023-06-19T07:32:57.321Z,18.49
2023-06-19T07:33:59.324Z,13.61
2023-06-19T07:35:01.296Z,5.65
2023-06-19T07:36:03.234Z,6.51
2023-06-19T07:37:05.191Z,8.49
2023-06-19T07:38:07.238Z,6.68
2023-06-19T07:39:09.215Z,6.07
2023-06-19T07:40:11.959Z,5.23
2023-06-19T07:41:13.918Z,5.64
2023-06-19T07:42:15.866Z,6.31
2023-06-19T07:43:17.816Z,5.01
2023-06-19T07:44:19.674Z,8.98
2023-06-19T07:45:21.515Z,11.55
2023-06-19T07:46:24.338Z,9.73
2023-06-19T07:47:26.281Z,7.77
2023-06-19T07:48:28.298Z,7.70
2023-06-19T07:49:30.150Z,4.72
2023-06-19T07:50:32.418Z,4.20
2023-06-19T07:51:34.774Z,6.26
2023-06-19T07:52:36.723Z,9.22
2023-06-19T07:53:38.579Z,8.11
2023-06-19T07:54:40.537Z,6.58
2023-06-19T07:55:42.384Z,13.82
2023-06-19T07:56:44.436Z,11.73
2023-06-19T07:57:46.383Z,9.83
2023-06-19T07:58:48.243Z,7.46
2023-06-19T07:59:50.192Z,8.93
2023-06-19T08:00:52.138Z,6.28
2023-06-19T08:01:54.086Z,7.41
2023-06-19T08:02:55.998Z,9.58
2023-06-19T08:03:58.069Z,8.09
2023-06-19T08:05:00.100Z,9.29
2023-06-19T08:06:02.130Z,8.47
2023-06-19T08:07:04.063Z,5.69
2023-06-19T08:08:05.911Z,6.13
2023-06-19T08:09:07.769Z,8.59
2023-06-19T08:10:13.845Z,9.53
2023-06-19T08:11:13.733Z,8.01
2023-06-19T08:12:15.672Z,5.72
2023-06-19T08:13:17.681Z,7.22
2023-06-19T08:14:19.579Z,10.85
2023-06-19T08:15:21.944Z,6.25
2023-06-19T08:16:23.903Z,9.54
2023-06-19T08:17:25.913Z,6.11
2023-06-19T08:18:27.914Z,4.37
2023-06-19T08:19:31.184Z,9.42
2023-06-19T08:20:33.142Z,9.89
2023-06-19T08:21:35.796Z,9.13
2023-06-19T08:22:37.641Z,4.84
2023-06-19T08:23:39.594Z,8.49
2023-06-19T08:24:41.571Z,8.44
2023-06-19T08:25:43.703Z,9.81
2023-06-19T08:26:45.871Z,6.66
2023-06-19T08:27:48.016Z,20.17
2023-06-19T08:28:49.978Z,8.03
2023-06-19T08:29:53.187Z,6.34
2023-06-19T08:30:55.224Z,8.27
2023-06-19T08:31:57.180Z,7.95
2023-06-19T08:32:59.265Z,7.71
2023-06-19T08:34:01.290Z,6.93
2023-06-19T08:35:03.634Z,4.64
2023-06-19T08:36:05.786Z,6.83
2023-06-19T08:37:07.746Z,5.80
2023-06-19T08:38:09.701Z,5.75
2023-06-19T08:39:11.642Z,6.48
2023-06-19T08:40:13.906Z,4.47
2023-06-19T08:41:15.861Z,5.25
2023-06-19T08:42:17.704Z,8.80
2023-06-19T08:43:19.488Z,5.75
2023-06-19T08:44:21.420Z,6.35
2023-06-19T08:45:23.668Z,6.22
2023-06-19T08:46:25.799Z,6.78
2023-06-19T08:47:27.690Z,5.61
2023-06-19T08:48:29.633Z,10.07
2023-06-19T08:49:31.589Z,6.45
2023-06-19T08:50:33.539Z,7.75
2023-06-19T08:51:35.402Z,7.07
2023-06-19T08:52:37.354Z,4.95
2023-06-19T08:53:39.286Z,8.43
2023-06-19T08:54:41.349Z,7.41
2023-06-19T08:55:44.422Z,6.81
2023-06-19T08:56:46.703Z,5.99
2023-06-19T08:57:48.640Z,6.87
2023-06-19T08:58:50.585Z,15.84
2023-06-19T08:59:52.553Z,11.01
2023-06-19T09:00:54.498Z,7.43
2023-06-19T09:01:56.453Z,6.81
2023-06-19T09:03:11.914Z,7.82
2023-06-19T09:04:02.251Z,6.51
2023-06-19T09:05:04.359Z,11.48
2023-06-19T09:06:06.767Z,6.02
2023-06-19T09:07:09.096Z,9.22
2023-06-19T09:08:11.229Z,6.05
2023-06-19T09:09:13.081Z,5.16
2023-06-19T09:10:15.452Z,5.98
2023-06-19T09:11:17.224Z,6.11
2023-06-19T09:12:19.228Z,9.76
2023-06-19T09:13:21.107Z,6.96
2023-06-19T09:14:22.955Z,6.20
2023-06-19T09:15:24.907Z,5.55
2023-06-19T09:16:26.857Z,7.58
2023-06-19T09:17:28.893Z,4.98
2023-06-19T09:18:30.874Z,8.93
2023-06-19T09:19:32.929Z,5.50
2023-06-19T09:20:34.977Z,8.16
2023-06-19T09:21:37.326Z,5.75
2023-06-19T09:22:39.694Z,6.87
2023-06-19T09:23:41.646Z,6.54
2023-06-19T09:24:43.856Z,4.70
2023-06-19T09:25:45.855Z,6.89
2023-06-19T09:26:47.806Z,7.27
2023-06-19T09:27:50.000Z,7.46
2023-06-19T09:28:51.917Z,6.52
2023-06-19T09:29:54.066Z,6.45
2023-06-19T09:30:56.047Z,6.96
2023-06-19T09:31:58.161Z,8.53
2023-06-19T09:33:00.285Z,7.67
2023-06-19T09:34:02.428Z,6.25
2023-06-19T09:35:04.446Z,9.25
2023-06-19T09:36:06.817Z,9.75
2023-06-19T09:37:08.664Z,10.16
2023-06-19T09:38:10.514Z,11.56
2023-06-19T09:39:12.479Z,5.59
2023-06-19T09:40:14.634Z,5.76
2023-06-19T09:41:16.476Z,13.46
2023-06-19T09:42:18.438Z,4.26
2023-06-19T09:43:20.476Z,6.69
2023-06-19T09:44:22.228Z,5.44
2023-06-19T09:45:24.183Z,8.23
2023-06-19T09:46:26.029Z,5.65
2023-06-19T09:47:28.091Z,9.75
2023-06-19T09:48:30.205Z,5.80
2023-06-19T09:49:31.988Z,6.67
2023-06-19T09:50:34.041Z,7.70
2023-06-19T09:51:35.792Z,6.78
2023-06-19T09:52:37.744Z,7.57
2023-06-19T09:53:39.700Z,20.64
2023-06-19T09:54:41.754Z,7.45
2023-06-19T09:55:43.706Z,7.14
2023-06-19T09:56:45.664Z,6.75
2023-06-19T09:57:47.811Z,9.67
2023-06-19T09:58:49.771Z,6.17
2023-06-19T09:59:51.619Z,7.12
2023-06-19T10:00:53.677Z,7.93
2023-06-19T10:01:55.792Z,7.69
2023-06-19T10:02:57.746Z,8.24
2023-06-19T10:03:59.630Z,6.51
2023-06-19T10:05:01.597Z,5.71
2023-06-19T10:06:03.652Z,7.35
2023-06-19T10:07:05.590Z,8.91
2023-06-19T10:08:07.441Z,6.13
2023-06-19T10:09:09.305Z,7.11
2023-06-19T10:10:11.457Z,7.87
2023-06-19T10:11:13.305Z,8.42
2023-06-19T10:12:15.262Z,6.73
2023-06-19T10:13:17.104Z,9.34
2023-06-19T10:14:19.058Z,6.94
2023-06-19T10:15:20.802Z,8.77
2023-06-19T10:16:22.794Z,7.88
2023-06-19T10:17:24.969Z,16.83
2023-06-19T10:18:26.970Z,9.37
2023-06-19T10:19:28.928Z,10.13
2023-06-19T10:20:30.976Z,7.86
2023-06-19T10:21:33.228Z,8.75
2023-06-19T10:22:35.203Z,6.07
2023-06-19T10:23:37.048Z,6.73
2023-06-19T10:24:39.376Z,10.74
2023-06-19T10:25:41.458Z,8.53
2023-06-19T10:26:44.120Z,9.18
2023-06-19T10:27:46.080Z,5.11
2023-06-19T10:28:48.024Z,7.63
2023-06-19T10:30:00.227Z,11.45
2023-06-19T10:30:53.588Z,5.64
2023-06-19T10:31:55.537Z,9.48
2023-06-19T10:32:57.460Z,6.47
2023-06-19T10:33:59.429Z,7.97
2023-06-19T10:35:01.430Z,7.43
2023-06-19T10:36:03.334Z,8.16
2023-06-19T10:37:05.286Z,5.01
2023-06-19T10:38:07.239Z,9.07
2023-06-19T10:39:09.292Z,5.91
2023-06-19T10:40:11.228Z,7.24
2023-06-19T10:41:13.405Z,8.94
2023-06-19T10:42:15.482Z,5.95
2023-06-19T10:43:17.535Z,8.92
2023-06-19T10:44:19.468Z,10.26
2023-06-19T10:45:21.431Z,9.63
2023-06-19T10:46:23.396Z,17.75
2023-06-19T10:47:25.498Z,10.01
2023-06-19T10:48:27.387Z,10.37
2023-06-19T10:49:29.227Z,9.12
2023-06-19T10:50:31.184Z,10.66
2023-06-19T10:51:33.130Z,10.35
2023-06-19T10:52:35.184Z,11.77
2023-06-19T10:53:37.139Z,6.79
2023-06-19T10:54:39.091Z,8.05
2023-06-19T10:55:41.059Z,7.44
2023-06-19T10:56:43.200Z,7.52
2023-06-19T10:59:12.992Z,9.30
2023-06-19T11:00:15.325Z,7.98
2023-06-19T11:01:17.347Z,10.51
2023-06-19T11:02:19.515Z,7.58
2023-06-19T11:03:21.860Z,7.24
2023-06-19T11:04:23.804Z,6.97
2023-06-19T11:05:25.656Z,13.52
2023-06-19T11:06:27.704Z,19.81
2023-06-19T11:07:29.764Z,12.53
2023-06-19T11:08:31.609Z,8.11
2023-06-19T11:09:33.457Z,12.97
2023-06-19T11:10:35.720Z,8.68
2023-06-19T11:11:37.674Z,8.55
2023-06-19T11:12:39.423Z,5.55
2023-06-19T11:13:41.369Z,8.85
2023-06-19T11:14:43.336Z,5.57
2023-06-19T11:15:45.117Z,5.59
2023-06-19T11:16:48.659Z,5.97
2023-06-19T11:17:50.651Z,7.89
2023-06-19T11:18:52.586Z,6.95
2023-06-19T11:19:54.622Z,9.47
2023-06-19T11:20:56.593Z,10.30
2023-06-19T11:21:58.551Z,5.69
2023-06-19T11:23:00.584Z,6.50
2023-06-19T11:24:02.470Z,8.35
2023-06-19T11:25:04.490Z,10.97
2023-06-19T11:26:06.649Z,5.37
2023-06-19T11:27:08.708Z,27.52
2023-06-19T11:28:11.800Z,5.23
2023-06-19T11:29:13.744Z,7.91
2023-06-19T11:30:16.201Z,8.69
2023-06-19T11:31:18.390Z,5.68
2023-06-19T11:32:20.343Z,7.33
2023-06-19T11:33:22.159Z,6.16
2023-06-19T11:34:24.808Z,8.98
2023-06-19T11:35:26.780Z,7.36
2023-06-19T11:36:28.735Z,7.38
2023-06-19T11:37:30.787Z,6.89
2023-06-19T11:38:32.740Z,13.95
2023-06-19T11:39:34.598Z,7.75
2023-06-19T11:40:36.533Z,8.41
2023-06-19T11:41:38.373Z,6.73
2023-06-19T11:42:40.346Z,8.18
2023-06-19T11:43:42.224Z,6.99
2023-06-19T11:44:44.152Z,20.63
2023-06-19T11:45:46.161Z,6.90
2023-06-19T11:46:48.160Z,7.10
2023-06-19T11:47:49.939Z,6.36
2023-06-19T11:49:06.528Z,9.39
2023-06-19T11:49:55.654Z,6.03
2023-06-19T11:50:57.810Z,8.99
2023-06-19T11:51:59.766Z,6.49
2023-06-19T11:53:01.832Z,8.78
2023-06-19T11:54:04.958Z,10.55
2023-06-19T11:55:07.093Z,9.29
2023-06-19T11:56:09.350Z,6.95
2023-06-19T11:57:11.684Z,7.35
2023-06-19T11:58:14.041Z,7.81
2023-06-19T11:59:15.990Z,6.35
2023-06-19T12:00:17.987Z,6.56
2023-06-19T12:01:20.027Z,7.61
2023-06-19T12:02:22.357Z,5.08
2023-06-19T12:03:24.565Z,7.34
2023-06-19T12:04:26.786Z,8.95
2023-06-19T12:05:28.830Z,13.76
2023-06-19T12:06:30.886Z,8.61
2023-06-19T12:07:32.749Z,28.71
2023-06-19T12:08:34.586Z,20.56
2023-06-19T12:09:36.431Z,7.94
2023-06-19T12:10:38.394Z,7.91
2023-06-19T12:11:40.336Z,5.78
2023-06-19T12:12:42.700Z,7.51
2023-06-19T12:13:44.650Z,7.74
2023-06-19T12:14:46.601Z,7.66
2023-06-19T12:15:48.558Z,7.29
2023-06-19T12:16:50.768Z,7.05
2023-06-19T12:17:52.676Z,8.54
2023-06-19T12:18:54.721Z,6.60
2023-06-19T12:19:56.696Z,10.33
2023-06-19T12:20:59.246Z,5.51
2023-06-19T12:22:01.213Z,8.87
2023-06-19T12:23:03.147Z,6.85
2023-06-19T12:24:05.142Z,6.05
2023-06-19T12:25:07.050Z,8.15
2023-06-19T12:26:10.025Z,7.08
2023-06-19T12:27:11.983Z,5.87
2023-06-19T12:28:13.827Z,7.68
2023-06-19T12:29:16.094Z,12.52
2023-06-19T12:30:18.140Z,7.02
2023-06-19T12:31:20.151Z,7.71
2023-06-19T12:32:22.194Z,6.91
2023-06-19T12:33:24.205Z,9.40
2023-06-19T12:34:31.050Z,11.19
2023-06-19T12:35:29.961Z,11.78
2023-06-19T12:36:31.901Z,6.97
2023-06-19T12:37:33.819Z,7.18
2023-06-19T12:38:35.825Z,7.31
2023-06-19T12:39:37.957Z,6.97
2023-06-19T12:40:40.372Z,7.61
2023-06-19T12:41:44.087Z,9.45
2023-06-19T12:42:46.276Z,9.23
2023-06-19T12:43:48.123Z,8.67
2023-06-19T12:44:49.872Z,8.19
2023-06-19T12:45:51.775Z,6.08
2023-06-19T12:46:53.782Z,7.47
2023-06-19T12:47:56.379Z,7.71
2023-06-19T12:48:58.399Z,9.61
2023-06-19T12:50:00.397Z,6.35
2023-06-19T12:51:02.407Z,5.90
2023-06-19T12:52:04.367Z,6.83
2023-06-19T12:53:06.217Z,8.77
2023-06-19T12:54:08.458Z,6.83
2023-06-19T12:55:10.431Z,32.24
2023-06-19T12:56:14.325Z,9.56
2023-06-19T12:57:16.175Z,11.59
2023-06-19T12:58:18.029Z,6.81
2023-06-19T12:59:20.072Z,10.47
2023-06-19T13:00:22.051Z,10.32
2023-06-19T13:01:24.111Z,8.63
2023-06-19T13:02:26.282Z,21.94
2023-06-19T13:03:28.688Z,6.29
2023-06-19T13:04:30.456Z,6.04
2023-06-19T13:05:32.302Z,10.64
2023-06-19T13:06:34.369Z,6.97
2023-06-19T13:07:36.314Z,8.77
2023-06-19T13:08:38.268Z,7.38
2023-06-19T13:09:40.235Z,9.27
2023-06-19T13:10:42.597Z,6.84
2023-06-19T13:11:44.537Z,8.53
2023-06-19T13:12:46.497Z,10.12
2023-06-19T13:13:48.541Z,8.79
2023-06-19T13:14:50.497Z,5.81
2023-06-19T13:15:52.540Z,8.68
2023-06-19T13:16:54.859Z,8.28
2023-06-19T13:17:56.921Z,6.89
2023-06-19T13:18:58.822Z,8.57
2023-06-19T13:20:00.787Z,6.95
2023-06-19T13:21:02.850Z,7.62
2023-06-19T13:22:04.886Z,6.33
2023-06-19T13:23:06.869Z,6.21
2023-06-19T13:24:09.139Z,7.46
2023-06-19T13:25:11.357Z,10.86
2023-06-19T13:26:14.341Z,6.71
2023-06-19T13:27:16.181Z,6.43
2023-06-19T13:28:18.144Z,8.00
2023-06-19T13:29:20.186Z,6.97
2023-06-19T13:30:22.357Z,9.81
2023-06-19T13:31:24.605Z,9.56
2023-06-19T13:32:26.485Z,9.32
2023-06-19T13:33:28.523Z,6.69
2023-06-19T13:34:30.570Z,12.55
2023-06-19T13:35:32.623Z,9.99
2023-06-19T13:36:34.785Z,6.43
2023-06-19T13:37:36.626Z,7.07
2023-06-19T13:38:38.689Z,6.55
2023-06-19T13:39:40.737Z,7.87
2023-06-19T13:40:42.701Z,8.99
2023-06-19T13:41:45.454Z,5.83
2023-06-19T13:42:47.213Z,7.32
2023-06-19T13:43:49.170Z,5.97
2023-06-19T13:44:51.477Z,6.07
2023-06-19T13:45:53.585Z,6.45
2023-06-19T13:46:55.678Z,7.61
2023-06-19T13:47:57.722Z,8.37
2023-06-19T13:48:59.758Z,7.05
2023-06-19T13:50:01.822Z,5.87
2023-06-19T13:51:03.861Z,8.51
2023-06-19T13:52:05.725Z,8.19
2023-06-19T13:53:07.651Z,9.36
2023-06-19T13:54:09.598Z,8.05
2023-06-19T13:55:11.472Z,9.38
2023-06-19T13:57:34.722Z,13.87
2023-06-19T13:58:36.760Z,17.33
2023-06-19T13:59:38.612Z,7.25
2023-06-19T14:00:40.611Z,8.00
2023-06-19T14:01:42.632Z,6.92
2023-06-19T14:02:44.544Z,7.62
2023-06-19T14:03:46.589Z,10.48
2023-06-19T14:04:48.586Z,8.49
2023-06-19T14:05:50.429Z,9.32
2023-06-19T14:06:52.396Z,7.03
2023-06-19T14:07:54.442Z,7.07
2023-06-19T14:08:59.367Z,8.91
2023-06-19T14:10:01.242Z,7.33
2023-06-19T14:11:03.282Z,17.31
2023-06-19T14:12:05.215Z,8.77
2023-06-19T14:13:07.069Z,12.07
2023-06-19T14:14:09.023Z,11.83
2023-06-19T14:15:11.067Z,6.57
2023-06-19T14:16:13.254Z,12.03
2023-06-19T14:17:15.497Z,5.72
2023-06-19T14:18:17.451Z,11.32
2023-06-19T14:19:19.403Z,7.97
2023-06-19T14:20:21.580Z,10.30
2023-06-19T14:21:23.617Z,25.42
2023-06-19T14:22:25.466Z,11.25
2023-06-19T14:23:27.421Z,17.59
2023-06-19T14:24:29.313Z,11.19
2023-06-19T14:25:31.332Z,12.65
2023-06-19T14:26:33.698Z,10.47
2023-06-19T14:27:35.750Z,9.21
2023-06-19T14:28:37.693Z,8.13
2023-06-19T14:29:39.706Z,12.58
2023-06-19T14:30:41.693Z,8.51
2023-06-19T14:31:43.970Z,9.10
2023-06-19T14:32:45.887Z,9.77
2023-06-19T14:33:47.771Z,8.98
2023-06-19T14:34:49.502Z,8.33
2023-06-19T14:35:53.303Z,8.39
2023-06-19T14:36:55.458Z,7.33
2023-06-19T14:37:57.462Z,9.12
2023-06-19T14:38:59.368Z,14.57
2023-06-19T14:40:01.285Z,7.13
2023-06-19T14:41:03.267Z,10.88
2023-06-19T14:42:05.122Z,7.64
2023-06-19T14:43:07.094Z,7.83
2023-06-19T14:44:09.137Z,9.34
2023-06-19T14:45:11.090Z,10.89
2023-06-19T14:46:20.343Z,7.99
2023-06-19T14:47:17.057Z,6.86
2023-06-19T14:48:19.093Z,8.80
2023-06-19T14:49:21.163Z,13.05
2023-06-19T14:50:23.416Z,7.41
2023-06-19T14:51:25.772Z,8.28
2023-06-19T14:52:27.829Z,11.29
2023-06-19T14:53:30.001Z,9.99
2023-06-19T14:54:32.041Z,9.12
2023-06-19T14:55:34.091Z,13.39
2023-06-19T14:56:36.047Z,8.91
2023-06-19T14:57:37.989Z,10.21
2023-06-19T14:58:39.903Z,12.42
2023-06-19T14:59:41.905Z,8.09
2023-06-19T15:00:43.748Z,6.71
2023-06-19T15:01:45.754Z,7.84
2023-06-19T15:02:47.888Z,8.50
2023-06-19T15:03:50.055Z,10.04
2023-06-19T15:05:05.020Z,10.79
2023-06-19T15:05:55.907Z,11.52
2023-06-19T15:06:57.916Z,10.57
2023-06-19T15:07:59.872Z,11.44
2023-06-19T15:09:03.125Z,7.49
2023-06-19T15:10:05.635Z,11.48
2023-06-19T15:11:07.777Z,12.35
2023-06-19T15:12:09.732Z,10.14
2023-06-19T15:13:11.696Z,8.73
2023-06-19T15:14:13.743Z,9.11
2023-06-19T15:15:15.693Z,12.03
2023-06-19T15:16:17.672Z,9.65
2023-06-19T15:17:19.713Z,9.35
2023-06-19T15:18:21.738Z,7.53
2023-06-19T15:19:23.914Z,7.44
2023-06-19T15:20:26.025Z,7.11
2023-06-19T15:21:28.219Z,8.20
2023-06-19T15:22:30.199Z,8.95
2023-06-19T15:23:32.217Z,9.16
2023-06-19T15:24:34.238Z,47.60
2023-06-19T15:25:36.138Z,55.39
2023-06-19T15:26:40.214Z,38.81
2023-06-19T15:27:42.203Z,40.14
2023-06-19T15:28:44.148Z,18.35
2023-06-19T15:29:45.893Z,11.46
2023-06-19T15:30:47.863Z,8.28
2023-06-19T15:31:50.107Z,7.87
2023-06-19T15:32:52.128Z,9.55
2023-06-19T15:33:54.114Z,14.63
2023-06-19T15:34:56.477Z,7.95
2023-06-19T15:35:58.431Z,8.19
2023-06-19T15:37:00.383Z,6.70
2023-06-19T15:38:02.324Z,8.65
2023-06-19T15:39:04.185Z,7.70
2023-06-19T15:40:06.245Z,9.29
2023-06-19T15:41:08.288Z,5.99
2023-06-19T15:42:10.238Z,10.81
2023-06-19T15:43:12.090Z,7.23
2023-06-19T15:44:14.042Z,10.47
2023-06-19T15:45:16.198Z,22.27
2023-06-19T15:46:18.373Z,14.81
2023-06-19T15:47:20.537Z,9.78
2023-06-19T15:48:22.468Z,7.00
2023-06-19T15:49:24.429Z,8.66
2023-06-19T15:50:26.597Z,9.89
2023-06-19T15:51:28.944Z,8.48
2023-06-19T15:52:30.906Z,7.05
2023-06-19T15:53:32.847Z,6.49
2023-06-19T15:54:34.692Z,7.41
2023-06-19T15:55:36.646Z,10.44
2023-06-19T15:56:38.610Z,7.15
2023-06-19T15:57:40.543Z,7.81
2023-06-19T15:58:42.509Z,5.89
2023-06-19T15:59:44.459Z,14.56
2023-06-19T16:00:46.846Z,10.48
2023-06-19T16:01:48.934Z,7.58
2023-06-19T16:02:51.056Z,8.26
2023-06-19T16:03:53.405Z,8.01
2023-06-19T16:04:55.132Z,9.44
2023-06-19T16:06:07.039Z,7.52
2023-06-19T16:07:00.681Z,6.79
2023-06-19T16:08:02.638Z,9.81
2023-06-19T16:09:04.682Z,9.82
2023-06-19T16:10:06.752Z,7.87
2023-06-19T16:11:09.023Z,9.41
2023-06-19T16:12:10.955Z,9.33
2023-06-19T16:13:12.905Z,8.75
2023-06-19T16:14:14.771Z,9.88
2023-06-19T16:15:16.707Z,12.35
2023-06-19T16:16:18.879Z,12.53
2023-06-19T16:17:20.955Z,10.30
2023-06-19T16:18:22.896Z,10.05
2023-06-19T16:19:25.935Z,9.85
2023-06-19T16:20:27.904Z,12.34
2023-06-19T16:21:29.858Z,8.31
2023-06-19T16:22:31.709Z,8.83
2023-06-19T16:23:33.559Z,7.37
2023-06-19T16:24:35.524Z,8.80
2023-06-19T16:25:37.596Z,8.88
2023-06-19T16:26:39.531Z,8.03
2023-06-19T16:27:41.579Z,5.97
2023-06-19T16:28:43.429Z,12.35
2023-06-19T16:29:45.581Z,14.57
2023-06-19T16:30:47.540Z,31.22
2023-06-19T16:32:00.397Z,88.09
2023-06-19T16:32:53.024Z,87.61
2023-06-19T16:33:54.823Z,79.37
2023-06-19T16:34:56.678Z,31.57
2023-06-19T16:35:58.628Z,40.42
2023-06-19T16:37:00.473Z,23.55
2023-06-19T16:38:02.434Z,13.33
2023-06-19T16:39:04.380Z,7.94
2023-06-19T16:40:06.443Z,7.86
2023-06-19T16:41:08.283Z,8.57
2023-06-19T16:42:10.235Z,7.53
2023-06-19T16:43:12.021Z,8.44
2023-06-19T16:44:13.953Z,21.08
2023-06-19T16:45:15.925Z,50.87
2023-06-19T16:46:17.862Z,59.83
2023-06-19T16:47:19.800Z,57.80
2023-06-19T16:48:21.662Z,66.73
2023-06-19T16:49:23.795Z,57.34
2023-06-19T16:50:26.069Z,28.02
2023-06-19T16:51:28.015Z,19.83
2023-06-19T16:52:29.978Z,18.58
2023-06-19T16:53:31.816Z,16.99
2023-06-19T16:54:33.785Z,10.46
2023-06-19T16:55:35.843Z,9.23
2023-06-19T16:56:38.094Z,10.39
2023-06-19T16:57:39.942Z,10.38
2023-06-19T16:58:41.799Z,9.76
2023-06-19T16:59:43.650Z,8.79
2023-06-19T17:00:45.942Z,8.36
2023-06-19T17:01:48.009Z,8.43
2023-06-19T17:02:50.014Z,10.75
2023-06-19T17:03:51.964Z,7.25
2023-06-19T17:04:53.933Z,11.72
2023-06-19T17:05:55.975Z,6.29
2023-06-19T17:06:57.922Z,9.79
2023-06-19T17:07:59.874Z,12.68
2023-06-19T17:09:01.624Z,8.71
2023-06-19T17:10:03.653Z,10.25
2023-06-19T17:11:05.839Z,18.05
2023-06-19T17:12:07.786Z,9.58
2023-06-19T17:13:09.740Z,17.36
2023-06-19T17:14:11.693Z,20.58
2023-06-19T17:15:13.429Z,9.48
2023-06-19T17:16:15.616Z,8.43
2023-06-19T17:17:17.540Z,6.52
2023-06-19T17:18:19.499Z,7.52
2023-06-19T17:19:21.357Z,9.30
2023-06-19T17:20:24.230Z,8.73
2023-06-19T17:21:26.505Z,8.45
2023-06-19T17:22:28.436Z,12.16
2023-06-19T17:23:30.391Z,7.53
2023-06-19T17:24:32.265Z,7.25
2023-06-19T17:25:34.204Z,9.70
2023-06-19T17:26:36.146Z,7.61
2023-06-19T17:27:38.085Z,7.29
2023-06-19T17:28:40.046Z,7.85
2023-06-19T17:29:41.995Z,7.63
2023-06-19T17:30:44.055Z,9.67
2023-06-19T17:31:45.908Z,7.07
2023-06-19T17:32:47.836Z,8.10
2023-06-19T17:33:49.829Z,7.65
2023-06-19T17:34:51.871Z,7.93
2023-06-19T17:35:53.853Z,7.87
2023-06-19T17:36:55.776Z,9.08
2023-06-19T17:37:58.029Z,10.76
2023-06-19T17:38:59.886Z,9.66
2023-06-19T17:40:01.835Z,9.79
2023-06-19T17:41:03.783Z,13.15
2023-06-19T17:42:05.738Z,10.20
2023-06-19T17:43:07.688Z,9.55
2023-06-19T17:44:09.552Z,9.71
2023-06-19T17:45:11.625Z,15.18
2023-06-19T17:46:14.008Z,9.88
2023-06-19T17:47:15.939Z,11.89
2023-06-19T17:48:17.758Z,11.21
2023-06-19T17:49:19.608Z,10.63
2023-06-19T17:50:22.212Z,11.80
2023-06-19T17:51:24.441Z,9.37
2023-06-19T17:52:26.489Z,10.03
2023-06-19T17:53:28.440Z,10.95
2023-06-19T17:54:30.315Z,8.00
2023-06-19T17:55:32.155Z,11.79
2023-06-19T17:56:34.124Z,10.13
2023-06-19T17:57:36.156Z,13.55
2023-06-19T17:58:38.317Z,7.27
2023-06-19T17:59:40.259Z,7.60
2023-06-19T18:00:42.234Z,9.46
2023-06-19T18:01:44.262Z,7.78
2023-06-19T18:02:46.286Z,12.69
2023-06-19T18:03:48.334Z,8.43
2023-06-19T18:04:50.237Z,8.90
2023-06-19T18:05:52.192Z,20.05
2023-06-19T18:06:54.243Z,9.74
2023-06-19T18:07:56.186Z,6.41
2023-06-19T18:08:58.048Z,7.16
2023-06-19T18:10:00.395Z,5.99
2023-06-19T18:11:02.386Z,9.12
2023-06-19T18:12:04.419Z,6.81
2023-06-19T18:13:06.400Z,10.82
2023-06-19T18:14:08.320Z,9.05
2023-06-19T18:15:10.267Z,10.44
2023-06-19T18:16:13.970Z,9.26
2023-06-19T18:17:16.000Z,9.21
2023-06-19T18:18:18.717Z,12.60
2023-06-19T18:19:21.071Z,8.50
2023-06-19T18:20:23.710Z,16.22
2023-06-19T18:21:25.976Z,11.03
2023-06-19T18:22:27.817Z,8.01
2023-06-19T18:23:29.801Z,11.34
2023-06-19T18:24:31.879Z,9.65
2023-06-19T18:25:33.896Z,9.38
2023-06-19T18:26:36.036Z,11.18
2023-06-19T18:27:38.006Z,7.52
2023-06-19T18:28:39.960Z,8.28
2023-06-19T18:29:42.006Z,10.17
2023-06-19T18:30:43.957Z,7.43
2023-06-19T18:31:45.811Z,6.45
2023-06-19T18:32:47.788Z,9.27
2023-06-19T18:33:49.826Z,8.93
2023-06-19T18:34:51.867Z,12.53
2023-06-19T18:35:53.814Z,9.59
2023-06-19T18:36:55.673Z,10.90
2023-06-19T18:37:57.639Z,8.55
2023-06-19T18:38:59.676Z,7.92
2023-06-19T18:40:01.646Z,9.00
2023-06-19T18:41:03.588Z,10.91
2023-06-19T18:42:05.538Z,9.95
2023-06-19T18:43:07.485Z,11.36
2023-06-19T18:44:09.445Z,9.71
2023-06-19T18:45:11.808Z,11.43
2023-06-19T18:46:13.823Z,11.27
2023-06-19T18:47:15.805Z,13.51
2023-06-19T18:48:17.793Z,14.94
2023-06-19T18:49:19.712Z,15.48
2023-06-19T18:50:22.053Z,12.90
2023-06-19T18:51:24.037Z,14.11
2023-06-19T18:53:47.078Z,11.44
2023-06-19T18:54:49.034Z,8.57
2023-06-19T18:55:50.985Z,11.21
2023-06-19T18:56:52.938Z,7.07
2023-06-19T18:57:54.898Z,8.15
2023-06-19T18:58:56.933Z,11.35
2023-06-19T18:59:58.895Z,9.15
2023-06-19T19:01:02.476Z,10.16
2023-06-19T19:02:04.732Z,11.27
2023-06-19T19:03:06.857Z,13.49
2023-06-19T19:04:08.957Z,15.12
2023-06-19T19:05:10.816Z,15.19
2023-06-19T19:06:13.299Z,11.88
2023-06-19T19:07:16.248Z,13.14
2023-06-19T19:08:18.209Z,16.21
2023-06-19T19:09:20.180Z,7.08
2023-06-19T19:10:22.635Z,12.33
2023-06-19T19:11:24.778Z,8.89
2023-06-19T19:12:26.525Z,12.32
2023-06-19T19:13:28.484Z,7.63
2023-06-19T19:14:30.457Z,8.33
2023-06-19T19:15:32.503Z,9.56
2023-06-19T19:16:34.819Z,10.24
2023-06-19T19:17:36.741Z,8.78
2023-06-19T19:18:38.649Z,8.29
2023-06-19T19:19:40.616Z,9.51
2023-06-19T19:20:42.552Z,9.30
2023-06-19T19:21:44.514Z,10.95
2023-06-19T19:22:46.460Z,9.45
2023-06-19T19:23:48.419Z,10.17
2023-06-19T19:24:50.910Z,8.18
2023-06-19T19:25:52.861Z,8.57
2023-06-19T19:26:54.905Z,7.93
2023-06-19T19:27:57.352Z,11.22
2023-06-19T19:28:59.310Z,12.10
2023-06-19T19:30:01.334Z,24.04
2023-06-19T19:31:03.315Z,35.78
2023-06-19T19:32:05.362Z,34.88
2023-06-19T19:33:07.268Z,24.42
2023-06-19T19:34:09.272Z,18.85
2023-06-19T19:35:11.336Z,15.19
2023-06-19T19:36:13.890Z,12.30
2023-06-19T19:37:15.849Z,10.10
2023-06-19T19:38:17.711Z,10.43
2023-06-19T19:39:19.687Z,10.55
2023-06-19T19:40:21.598Z,9.47
2023-06-19T19:41:23.652Z,9.63
2023-06-19T19:42:25.711Z,7.37
2023-06-19T19:43:27.771Z,7.11
2023-06-19T19:44:29.715Z,9.47
2023-06-19T19:45:31.773Z,8.52
2023-06-19T19:46:34.355Z,5.57
2023-06-19T19:47:36.376Z,6.27
2023-06-19T19:48:38.442Z,6.05
2023-06-19T19:49:40.400Z,8.07
2023-06-19T19:50:42.460Z,8.25
2023-06-19T19:51:44.498Z,7.77
2023-06-19T19:52:46.361Z,6.11
2023-06-19T19:53:48.200Z,6.79
2023-06-19T19:54:50.057Z,5.91
2023-06-19T19:55:52.006Z,6.02
2023-06-19T19:56:53.985Z,8.27
2023-06-19T19:57:55.903Z,5.56
2023-06-19T19:58:57.872Z,5.55
2023-06-19T19:59:59.813Z,4.79
2023-06-19T20:01:01.764Z,10.43
2023-06-19T20:02:03.923Z,7.83
2023-06-19T20:03:05.923Z,4.96
2023-06-19T20:04:07.984Z,5.12
2023-06-19T20:05:09.986Z,6.51
2023-06-19T20:06:12.142Z,6.02
2023-06-19T20:07:14.092Z,6.31
2023-06-19T20:08:15.944Z,5.91
2023-06-19T20:09:17.792Z,6.30
2023-06-19T20:10:19.740Z,6.42
2023-06-19T20:11:21.712Z,4.59
2023-06-19T20:12:23.856Z,6.30
2023-06-19T20:13:25.811Z,6.57
2023-06-19T20:14:27.664Z,6.27
2023-06-19T20:15:29.609Z,4.93
2023-06-19T20:16:31.594Z,5.55
2023-06-19T20:17:33.582Z,3.90
2023-06-19T20:18:35.474Z,4.50
2023-06-19T20:19:37.350Z,5.83
2023-06-19T20:20:39.271Z,5.53
2023-06-19T20:21:41.133Z,6.36
2023-06-19T20:22:43.092Z,8.41
2023-06-19T20:23:45.036Z,5.72
2023-06-19T20:24:46.923Z,9.30
2023-06-19T20:25:48.833Z,7.05
2023-06-19T20:26:50.788Z,4.57
2023-06-19T20:28:56.429Z,5.75
2023-06-19T20:29:58.294Z,4.45
2023-06-19T20:31:00.347Z,5.80
2023-06-19T20:32:02.507Z,4.97
2023-06-19T20:33:04.612Z,5.12
2023-06-19T20:34:06.498Z,4.51
2023-06-19T20:35:08.246Z,6.62
2023-06-19T20:36:10.195Z,7.37
2023-06-19T20:37:12.052Z,4.41
2023-06-19T20:38:14.118Z,6.13
2023-06-19T20:39:16.165Z,4.46